sensor_id;sensor_type;location;lat;lon;timestamp;pressure;altitude;pressure_sealevel;temperature;humidity
5679;BME280;2862;52.560;13.566;2023-04-15T00:03:27;99703.66;;;8.52;100.00
5679;BME280;2862;52.560;13.566;2023-04-15T00:13:32;99683.91;;;8.45;100.00
5679;BME280;2862;52.560;13.566;2023-04-15T00:23:40;99679.41;;;8.55;100.00
5679;BME280;2862;52.560;13.566;2023-04-15T00:33:43;99687.97;;;8.59;100.00
5679;BME280;2862;52.560;13.566;2023-04-15T00:43:48;99691.59;;;8.58;100.00
5679;BME280;2862;52.560;13.566;2023-04-15T00:53:51;99678.56;;;8.45;100.00
5679;BME280;2862;52.560;13.566;2023-04-15T01:03:56;99678.16;;;8.49;100.00
5679;BME280;2862;52.560;13.566;2023-04-15T01:14:01;99672.25;;;8.46;100.00
5679;BME280;2862;52.560;13.566;2023-04-15T01:24:08;99666.09;;;8.55;100.00
5679;BME280;2862;52.560;13.566;2023-04-15T01:34:13;99663.97;;;8.59;100.00
5679;BME280;2862;52.560;13.566;2023-04-15T01:44:16;99664.38;;;8.54;100.00
5679;BME280;2862;52.560;13.566;2023-04-15T01:54:22;99656.97;;;8.67;100.00
5679;BME280;2862;52.560;13.566;2023-04-15T02:04:26;99653.47;;;8.67;100.00
5679;BME280;2862;52.560;13.566;2023-04-15T02:14:34;99657.66;;;8.60;100.00
5679;BME280;2862;52.560;13.566;2023-04-15T02:24:37;99655.84;;;8.70;100.00
5679;BME280;2862;52.560;13.566;2023-04-15T02:34:42;99655.84;;;8.70;100.00
5679;BME280;2862;52.560;13.566;2023-04-15T02:44:46;99654.16;;;8.69;100.00
5679;BME280;2862;52.560;13.566;2023-04-15T02:54:50;99661.00;;;8.71;100.00
5679;BME280;2862;52.560;13.566;2023-04-15T03:04:56;99665.22;;;8.64;100.00
5679;BME280;2862;52.560;13.566;2023-04-15T03:15:02;99677.72;;;8.64;100.00
5679;BME280;2862;52.560;13.566;2023-04-15T03:25:10;99671.97;;;8.68;100.00
5679;BME280;2862;52.560;13.566;2023-04-15T03:35:15;99669.47;;;8.67;100.00
5679;BME280;2862;52.560;13.566;2023-04-15T03:45:18;99671.97;;;8.68;100.00
5679;BME280;2862;52.560;13.566;2023-04-15T03:55:23;99668.59;;;8.76;100.00
5679;BME280;2862;52.560;13.566;2023-04-15T04:05:26;99677.44;;;8.76;100.00
5679;BME280;2862;52.560;13.566;2023-04-15T04:15:30;99686.00;;;8.70;100.00
5679;BME280;2862;52.560;13.566;2023-04-15T04:25:33;99681.50;;;8.71;100.00
5679;BME280;2862;52.560;13.566;2023-04-15T04:35:38;99691.88;;;8.74;100.00
5679;BME280;2862;52.560;13.566;2023-04-15T04:45:41;99695.13;;;8.77;100.00
5679;BME280;2862;52.560;13.566;2023-04-15T04:55:46;99684.72;;;8.84;100.00
5679;BME280;2862;52.560;13.566;2023-04-15T05:05:49;99702.53;;;8.93;100.00
5679;BME280;2862;52.560;13.566;2023-04-15T05:15:53;99718.25;;;8.96;100.00
5679;BME280;2862;52.560;13.566;2023-04-15T05:25:56;99715.00;;;9.12;100.00
5679;BME280;2862;52.560;13.566;2023-04-15T05:36:01;99716.38;;;9.26;100.00
5679;BME280;2862;52.560;13.566;2023-04-15T05:46:04;99721.53;;;9.37;100.00
5679;BME280;2862;52.560;13.566;2023-04-15T05:56:10;99715.06;;;9.40;100.00
5679;BME280;2862;52.560;13.566;2023-04-15T06:06:12;99720.09;;;9.52;100.00
5679;BME280;2862;52.560;13.566;2023-04-15T06:16:17;99721.78;;;9.53;100.00
5679;BME280;2862;52.560;13.566;2023-04-15T06:26:20;99730.50;;;9.83;100.00
5679;BME280;2862;52.560;13.566;2023-04-15T06:36:25;99732.81;;;9.96;100.00
5679;BME280;2862;52.560;13.566;2023-04-15T06:46:28;99743.53;;;10.23;100.00
5679;BME280;2862;52.560;13.566;2023-04-15T06:56:33;99784.81;;;10.01;100.00
5679;BME280;2862;52.560;13.566;2023-04-15T07:06:37;99767.25;;;9.99;100.00
5679;BME280;2862;52.560;13.566;2023-04-15T07:16:41;99779.69;;;10.45;100.00
5679;BME280;2862;52.560;13.566;2023-04-15T07:26:44;99786.19;;;10.05;100.00
5679;BME280;2862;52.560;13.566;2023-04-15T07:36:49;99799.25;;;9.71;100.00
5679;BME280;2862;52.560;13.566;2023-04-15T07:46:52;99799.69;;;9.67;100.00
5679;BME280;2862;52.560;13.566;2023-04-15T07:56:57;99801.41;;;9.58;100.00
5679;BME280;2862;52.560;13.566;2023-04-15T08:07:00;99812.19;;;9.66;100.00
5679;BME280;2862;52.560;13.566;2023-04-15T08:17:04;99814.13;;;9.74;100.00
5679;BME280;2862;52.560;13.566;2023-04-15T08:27:08;99823.09;;;9.82;100.00
5679;BME280;2862;52.560;13.566;2023-04-15T08:37:12;99822.63;;;9.97;100.00
5679;BME280;2862;52.560;13.566;2023-04-15T08:47:17;99832.38;;;9.78;100.00
5679;BME280;2862;52.560;13.566;2023-04-15T08:57:25;99835.72;;;9.90;100.00
5679;BME280;2862;52.560;13.566;2023-04-15T09:07:28;99840.38;;;9.88;100.00
5679;BME280;2862;52.560;13.566;2023-04-15T09:17:33;99843.56;;;10.01;100.00
5679;BME280;2862;52.560;13.566;2023-04-15T09:27:35;99865.31;;;10.06;100.00
5679;BME280;2862;52.560;13.566;2023-04-15T09:37:40;99862.88;;;10.23;100.00
5679;BME280;2862;52.560;13.566;2023-04-15T09:47:43;99875.41;;;10.22;100.00
5679;BME280;2862;52.560;13.566;2023-04-15T09:57:48;99892.88;;;9.97;100.00
5679;BME280;2862;52.560;13.566;2023-04-15T10:07:51;99883.75;;;10.09;100.00
5679;BME280;2862;52.560;13.566;2023-04-15T10:17:57;99897.47;;;10.15;100.00
5679;BME280;2862;52.560;13.566;2023-04-15T10:28:02;99900.78;;;10.46;100.00
5679;BME280;2862;52.560;13.566;2023-04-15T10:38:37;99894.81;;;10.61;100.00
5679;BME280;2862;52.560;13.566;2023-04-15T10:48:46;99900.34;;;10.78;100.00
5679;BME280;2862;52.560;13.566;2023-04-15T10:58:51;99907.06;;;10.54;100.00
5679;BME280;2862;52.560;13.566;2023-04-15T11:08:56;99919.34;;;10.47;100.00
5679;BME280;2862;52.560;13.566;2023-04-15T11:19:01;99917.06;;;10.52;100.00
5679;BME280;2862;52.560;13.566;2023-04-15T11:29:04;99935.44;;;10.65;100.00
5679;BME280;2862;52.560;13.566;2023-04-15T11:39:08;99941.94;;;10.62;100.00
5679;BME280;2862;52.560;13.566;2023-04-15T11:49:25;99960.94;;;10.59;100.00
5679;BME280;2862;52.560;13.566;2023-04-15T11:59:41;99969.97;;;10.49;100.00
5679;BME280;2862;52.560;13.566;2023-04-15T12:09:53;99981.25;;;10.43;100.00
5679;BME280;2862;52.560;13.566;2023-04-15T12:19:58;99982.31;;;10.59;100.00
5679;BME280;2862;52.560;13.566;2023-04-15T12:30:05;99984.22;;;10.77;100.00
5679;BME280;2862;52.560;13.566;2023-04-15T12:40:10;99991.22;;;10.87;100.00
5679;BME280;2862;52.560;13.566;2023-04-15T12:50:13;99998.19;;;10.71;100.00
5679;BME280;2862;52.560;13.566;2023-04-15T13:00:18;100012.47;;;10.89;100.00
5679;BME280;2862;52.560;13.566;2023-04-15T13:10:21;100025.13;;;10.97;100.00
5679;BME280;2862;52.560;13.566;2023-04-15T13:20:26;100027.06;;;10.95;100.00
5679;BME280;2862;52.560;13.566;2023-04-15T13:30:29;100029.50;;;10.88;100.00
5679;BME280;2862;52.560;13.566;2023-04-15T13:40:34;100042.66;;;10.72;100.00
5679;BME280;2862;52.560;13.566;2023-04-15T13:50:37;100049.06;;;10.88;100.00
5679;BME280;2862;52.560;13.566;2023-04-15T14:00:42;100058.91;;;10.98;100.00
5679;BME280;2862;52.560;13.566;2023-04-15T14:10:45;100075.28;;;10.85;100.00
5679;BME280;2862;52.560;13.566;2023-04-15T14:20:51;100077.63;;;10.98;100.00
5679;BME280;2862;52.560;13.566;2023-04-15T14:30:55;100090.44;;;10.94;100.00
5679;BME280;2862;52.560;13.566;2023-04-15T14:40:59;100104.13;;;10.91;100.00
5679;BME280;2862;52.560;13.566;2023-04-15T14:51:02;100118.66;;;10.69;100.00
5679;BME280;2862;52.560;13.566;2023-04-15T15:01:07;100125.41;;;10.63;100.00
5679;BME280;2862;52.560;13.566;2023-04-15T15:11:10;100135.00;;;10.56;100.00
5679;BME280;2862;52.560;13.566;2023-04-15T15:21:14;100142.03;;;10.67;100.00
5679;BME280;2862;52.560;13.566;2023-04-15T15:31:17;100151.84;;;10.67;100.00
5679;BME280;2862;52.560;13.566;2023-04-15T15:41:23;100149.28;;;10.94;100.00
5679;BME280;2862;52.560;13.566;2023-04-15T15:51:26;100158.31;;;10.83;100.00
5679;BME280;2862;52.560;13.566;2023-04-15T16:01:31;100177.63;;;10.68;100.00
5679;BME280;2862;52.560;13.566;2023-04-15T16:11:34;100182.25;;;10.66;100.00
5679;BME280;2862;52.560;13.566;2023-04-15T16:21:38;100196.59;;;10.55;100.00
5679;BME280;2862;52.560;13.566;2023-04-15T16:31:42;100197.59;;;10.54;100.00
5679;BME280;2862;52.560;13.566;2023-04-15T16:41:47;100199.84;;;10.49;100.00
5679;BME280;2862;52.560;13.566;2023-04-15T16:51:50;100209.41;;;10.42;100.00
5679;BME280;2862;52.560;13.566;2023-04-15T17:01:56;100223.78;;;10.50;100.00
5679;BME280;2862;52.560;13.566;2023-04-15T17:11:59;100235.84;;;10.54;100.00
5679;BME280;2862;52.560;13.566;2023-04-15T17:22:05;100248.50;;;10.33;100.00
5679;BME280;2862;52.560;13.566;2023-04-15T17:32:10;100262.84;;;10.42;100.00
5679;BME280;2862;52.560;13.566;2023-04-15T17:42:16;100267.81;;;10.46;100.00
5679;BME280;2862;52.560;13.566;2023-04-15T17:52:18;100284.53;;;10.48;100.00
5679;BME280;2862;52.560;13.566;2023-04-15T18:02:23;100291.56;;;10.40;100.00
5679;BME280;2862;52.560;13.566;2023-04-15T18:12:26;100309.28;;;10.41;100.00
5679;BME280;2862;52.560;13.566;2023-04-15T18:22:34;100326.97;;;10.32;100.00
5679;BME280;2862;52.560;13.566;2023-04-15T18:32:37;100339.03;;;10.26;100.00
5679;BME280;2862;52.560;13.566;2023-04-15T18:42:42;100344.28;;;10.28;100.00
5679;BME280;2862;52.560;13.566;2023-04-15T18:52:45;100355.88;;;10.17;100.00
5679;BME280;2862;52.560;13.566;2023-04-15T19:02:49;100367.34;;;10.08;100.00
5679;BME280;2862;52.560;13.566;2023-04-15T19:12:52;100376.78;;;10.12;100.00
5679;BME280;2862;52.560;13.566;2023-04-15T19:22:59;100383.66;;;10.05;100.00
5679;BME280;2862;52.560;13.566;2023-04-15T19:33:01;100396.34;;;9.92;100.00
5679;BME280;2862;52.560;13.566;2023-04-15T19:43:06;100401.25;;;9.87;100.00
5679;BME280;2862;52.560;13.566;2023-04-15T19:53:09;100418.13;;;9.87;100.00
5679;BME280;2862;52.560;13.566;2023-04-15T20:03:13;100421.81;;;9.96;100.00
5679;BME280;2862;52.560;13.566;2023-04-15T20:13:19;100420.81;;;9.87;100.00
5679;BME280;2862;52.560;13.566;2023-04-15T20:23:23;100425.31;;;9.87;100.00
5679;BME280;2862;52.560;13.566;2023-04-15T20:33:26;100433.34;;;9.96;100.00
5679;BME280;2862;52.560;13.566;2023-04-15T20:43:32;100444.69;;;9.89;100.00
5679;BME280;2862;52.560;13.566;2023-04-15T20:53:35;100443.84;;;9.88;100.00
5679;BME280;2862;52.560;13.566;2023-04-15T21:03:39;100456.88;;;9.81;100.00
5679;BME280;2862;52.560;13.566;2023-04-15T21:13:42;100454.72;;;9.75;100.00
5679;BME280;2862;52.560;13.566;2023-04-15T21:23:48;100465.72;;;9.82;100.00
5679;BME280;2862;52.560;13.566;2023-04-15T21:33:51;100479.31;;;9.79;100.00
5679;BME280;2862;52.560;13.566;2023-04-15T21:43:55;100491.47;;;9.83;100.00
5679;BME280;2862;52.560;13.566;2023-04-15T21:53:58;100494.97;;;9.83;100.00
5679;BME280;2862;52.560;13.566;2023-04-15T22:04:03;100502.41;;;9.69;100.00
5679;BME280;2862;52.560;13.566;2023-04-15T22:14:09;100505.09;;;9.69;100.00
5679;BME280;2862;52.560;13.566;2023-04-15T22:24:20;100519.50;;;9.77;100.00
5679;BME280;2862;52.560;13.566;2023-04-15T22:34:28;100532.22;;;9.85;100.00
5679;BME280;2862;52.560;13.566;2023-04-15T22:44:35;100546.09;;;9.79;100.00
5679;BME280;2862;52.560;13.566;2023-04-15T22:54:40;100541.81;;;9.88;100.00
5679;BME280;2862;52.560;13.566;2023-04-15T23:04:46;100551.00;;;9.95;100.00
5679;BME280;2862;52.560;13.566;2023-04-15T23:14:50;100577.50;;;9.87;100.00
5679;BME280;2862;52.560;13.566;2023-04-15T23:24:54;100570.75;;;10.03;100.00
5679;BME280;2862;52.560;13.566;2023-04-15T23:34:57;100574.66;;;9.99;100.00
5679;BME280;2862;52.560;13.566;2023-04-15T23:45:07;100590.34;;;9.93;100.00
5679;BME280;2862;52.560;13.566;2023-04-15T23:55:10;100583.28;;;9.92;100.00
